Time;durP1;ratioP1;P1;durP2;ratioP2;P2;SDS_P1;SDS_P2;PMS_P1;PMS_P2;Temp;Humidity;BMP_temperature;BMP_pressure;BME280_temperature;BME280_humidity;BME280_pressure;Samples;Min_cycle;Max_cycle;Signal;HPM_P1;HPM_P2
2021/08/23 00:01:56;;;;;;;3.50;2.23;;;;;;;;;;5098710;28;20208;-69
2021/08/23 00:04:24;;;;;;;2.30;1.70;;;;;;;;;;5105580;28;20630;-69
2021/08/23 00:06:53;;;;;;;1.93;1.67;;;;;;;;;;5118928;28;20632;-69
2021/08/23 00:09:21;;;;;;;2.43;2.03;;;;;;;;;;5118856;28;20206;-69
2021/08/23 00:11:49;;;;;;;2.33;1.90;;;;;;;;;;5118780;28;20222;-69
2021/08/23 00:14:17;;;;;;;2.50;2.23;;;;;;;;;;5118885;28;20235;-69
2021/08/23 00:16:46;;;;;;;3.60;2.20;;;;;;;;;;5118461;28;20211;-69
2021/08/23 00:19:14;;;;;;;3.37;2.00;;;;;;;;;;5118796;28;20566;-69
2021/08/23 00:21:44;;;;;;;3.50;1.97;;;;;;;;;;5118455;28;20315;-69
2021/08/23 00:24:22;;;;;;;3.50;1.80;;;;;;;;;;5118355;28;20265;-69
2021/08/23 00:26:51;;;;;;;1.83;1.40;;;;;;;;;;5100455;28;20205;-71
2021/08/23 00:29:18;;;;;;;3.03;1.83;;;;;;;;;;5098141;28;20576;-68
2021/08/23 00:31:48;;;;;;;1.87;1.57;;;;;;;;;;5097940;28;20688;-70
2021/08/23 00:34:16;;;;;;;3.60;1.70;;;;;;;;;;5098231;28;20316;-69
2021/08/23 00:36:44;;;;;;;2.77;1.83;;;;;;;;;;5097980;28;20570;-69
2021/08/23 00:39:13;;;;;;;2.57;1.83;;;;;;;;;;5097992;28;20222;-69
2021/08/23 00:41:41;;;;;;;3.07;1.90;;;;;;;;;;5098022;28;20285;-70
2021/08/23 00:44:09;;;;;;;2.03;1.70;;;;;;;;;;5097856;28;20247;-71
2021/08/23 00:46:41;;;;;;;4.80;2.03;;;;;;;;;;5098042;28;20227;-70
2021/08/23 00:49:11;;;;;;;2.50;1.83;;;;;;;;;;5111651;28;20200;-69
2021/08/23 00:51:39;;;;;;;3.07;1.77;;;;;;;;;;5098108;28;20219;-69
2021/08/23 00:54:07;;;;;;;3.87;1.90;;;;;;;;;;5097340;28;20233;-69
2021/08/23 00:56:35;;;;;;;3.60;2.07;;;;;;;;;;5097919;28;20223;-69
2021/08/23 00:59:08;;;;;;;2.80;1.47;;;;;;;;;;5097848;28;20219;-71
2021/08/23 01:01:42;;;;;;;1.90;1.70;;;;;;;;;;5097992;28;20292;-71
2021/08/23 01:04:15;;;;;;;2.33;2.07;;;;;;;;;;5097489;28;20224;-71
2021/08/23 01:06:44;;;;;;;2.03;1.83;;;;;;;;;;5097898;28;20273;-68
2021/08/23 01:09:15;;;;;;;3.27;1.53;;;;;;;;;;5097200;28;20580;-69
2021/08/23 01:11:46;;;;;;;3.53;1.87;;;;;;;;;;5097794;28;20216;-69
2021/08/23 01:14:14;;;;;;;2.77;1.73;;;;;;;;;;5097642;28;20229;-69
2021/08/23 01:16:42;;;;;;;2.53;1.93;;;;;;;;;;5097409;28;20295;-69
2021/08/23 01:19:10;;;;;;;2.90;1.57;;;;;;;;;;5097374;28;20230;-69
2021/08/23 01:21:40;;;;;;;3.90;2.07;;;;;;;;;;5097159;28;20243;-69
2021/08/23 01:24:09;;;;;;;2.20;1.83;;;;;;;;;;5099384;28;20232;-69
2021/08/23 01:26:41;;;;;;;2.40;1.70;;;;;;;;;;5101700;28;20197;-69
2021/08/23 01:29:13;;;;;;;3.17;1.70;;;;;;;;;;5097345;28;20215;-69
2021/08/23 01:31:42;;;;;;;1.90;1.70;;;;;;;;;;5097174;28;20220;-69
2021/08/23 01:34:13;;;;;;;2.40;1.60;;;;;;;;;;5097408;28;20235;-69
2021/08/23 01:36:41;;;;;;;1.70;1.60;;;;;;;;;;5097411;28;20284;-71
2021/08/23 01:39:09;;;;;;;2.47;1.70;;;;;;;;;;5101011;28;20209;-72
2021/08/23 01:41:37;;;;;;;2.23;1.60;;;;;;;;;;5101417;28;20205;-70
2021/08/23 01:44:05;;;;;;;2.50;1.70;;;;;;;;;;5101410;28;20590;-71
2021/08/23 01:46:33;;;;;;;2.90;1.43;;;;;;;;;;5101423;28;20209;-71
2021/08/23 01:49:03;;;;;;;2.10;1.33;;;;;;;;;;5115107;28;20201;-71
2021/08/23 01:51:32;;;;;;;4.07;1.40;;;;;;;;;;5101649;28;20295;-71
2021/08/23 01:54:00;;;;;;;1.90;1.60;;;;;;;;;;5101105;28;20229;-71
2021/08/23 01:56:29;;;;;;;2.97;1.77;;;;;;;;;;5101282;28;20570;-70
2021/08/23 01:58:58;;;;;;;2.63;1.20;;;;;;;;;;5101062;28;20578;-71
2021/08/23 02:01:26;;;;;;;2.00;1.40;;;;;;;;;;5101399;28;20210;-69
2021/08/23 02:03:54;;;;;;;2.50;1.70;;;;;;;;;;5101020;28;20591;-71
2021/08/23 02:06:22;;;;;;;2.47;1.53;;;;;;;;;;5101370;28;20210;-69
2021/08/23 02:08:52;;;;;;;2.27;1.67;;;;;;;;;;5101014;28;20217;-69
2021/08/23 02:11:20;;;;;;;1.37;1.27;;;;;;;;;;5101148;28;20555;-69
2021/08/23 02:13:48;;;;;;;1.97;1.30;;;;;;;;;;5100631;28;20239;-69
2021/08/23 02:16:16;;;;;;;1.80;1.37;;;;;;;;;;5100728;28;20657;-69
2021/08/23 02:18:44;;;;;;;1.87;1.33;;;;;;;;;;5101012;28;20220;-69
2021/08/23 02:21:12;;;;;;;2.63;1.77;;;;;;;;;;5100815;28;20240;-69
2021/08/23 02:23:41;;;;;;;3.33;1.47;;;;;;;;;;5100543;28;20201;-69
2021/08/23 02:26:10;;;;;;;2.40;1.27;;;;;;;;;;5108188;28;20286;-69
2021/08/23 02:28:38;;;;;;;3.30;1.60;;;;;;;;;;5100828;28;20206;-69
2021/08/23 02:31:07;;;;;;;2.57;1.70;;;;;;;;;;5100498;28;20219;-69
2021/08/23 02:33:35;;;;;;;2.43;1.60;;;;;;;;;;5100667;28;20305;-69
2021/08/23 02:36:02;;;;;;;1.50;1.40;;;;;;;;;;5100548;28;20214;-69
2021/08/23 02:38:30;;;;;;;3.77;1.50;;;;;;;;;;5107085;28;20210;-70
2021/08/23 02:40:58;;;;;;;1.27;1.10;;;;;;;;;;5120920;28;20205;-69
2021/08/23 02:43:28;;;;;;;1.70;1.57;;;;;;;;;;5120513;28;20567;-69
2021/08/23 02:45:56;;;;;;;2.50;1.57;;;;;;;;;;5120927;28;20286;-69
2021/08/23 02:48:24;;;;;;;3.97;1.43;;;;;;;;;;5120968;27;20208;-69
2021/08/23 02:50:52;;;;;;;1.50;1.40;;;;;;;;;;5104146;28;20205;-69
2021/08/23 02:53:19;;;;;;;1.93;1.20;;;;;;;;;;5100108;28;20218;-69
2021/08/23 02:55:47;;;;;;;2.70;1.87;;;;;;;;;;5100309;28;20264;-69
2021/08/23 02:58:16;;;;;;;3.03;2.43;;;;;;;;;;5100188;28;20211;-69
2021/08/23 03:00:45;;;;;;;3.37;1.50;;;;;;;;;;5100213;28;20283;-69
2021/08/23 03:03:13;;;;;;;4.57;1.63;;;;;;;;;;5100248;28;20266;-69
2021/08/23 03:05:41;;;;;;;1.83;1.30;;;;;;;;;;5099720;28;20257;-69
2021/08/23 03:08:09;;;;;;;4.23;2.33;;;;;;;;;;5099769;28;20747;-69
2021/08/23 03:10:37;;;;;;;2.30;1.67;;;;;;;;;;5099923;28;20670;-69
2021/08/23 03:13:05;;;;;;;3.37;1.50;;;;;;;;;;5100033;28;20211;-69
2021/08/23 03:15:33;;;;;;;5.27;1.70;;;;;;;;;;5099841;28;20256;-69
2021/08/23 03:18:03;;;;;;;1.80;1.43;;;;;;;;;;5099586;28;20246;-69
2021/08/23 03:20:31;;;;;;;1.50;1.40;;;;;;;;;;5099771;28;20233;-69
2021/08/23 03:22:59;;;;;;;3.07;1.60;;;;;;;;;;5099772;28;20209;-69
2021/08/23 03:25:27;;;;;;;3.03;1.30;;;;;;;;;;5106120;28;20214;-69
2021/08/23 03:27:54;;;;;;;2.33;1.43;;;;;;;;;;5099465;28;20673;-69
2021/08/23 03:30:23;;;;;;;3.07;1.40;;;;;;;;;;5099683;28;20237;-69
2021/08/23 03:32:51;;;;;;;1.40;1.27;;;;;;;;;;5099533;28;20211;-69
2021/08/23 03:35:20;;;;;;;1.63;1.20;;;;;;;;;;5099606;28;20244;-69
2021/08/23 03:37:48;;;;;;;1.63;1.50;;;;;;;;;;5099222;28;20210;-69
2021/08/23 03:40:17;;;;;;;2.67;1.30;;;;;;;;;;5099494;28;20607;-69
2021/08/23 03:42:45;;;;;;;5.37;1.47;;;;;;;;;;5099106;28;20297;-69
2021/08/23 03:45:13;;;;;;;2.73;1.60;;;;;;;;;;5099346;28;20695;-69
2021/08/23 03:47:41;;;;;;;3.23;1.60;;;;;;;;;;5101916;28;20205;-69
2021/08/23 03:50:09;;;;;;;2.43;1.57;;;;;;;;;;5109839;28;20217;-69
2021/08/23 03:52:38;;;;;;;4.23;1.40;;;;;;;;;;5098904;28;20755;-69
2021/08/23 03:55:07;;;;;;;1.63;1.27;;;;;;;;;;5098935;28;20228;-69
2021/08/23 03:57:36;;;;;;;2.57;1.30;;;;;;;;;;5099149;28;20212;-70
2021/08/23 04:00:05;;;;;;;1.83;1.23;;;;;;;;;;5099197;28;20679;-69
2021/08/23 04:02:34;;;;;;;1.97;1.30;;;;;;;;;;5097758;28;20234;-69
2021/08/23 04:05:02;;;;;;;2.10;1.50;;;;;;;;;;5098575;28;20692;-68
2021/08/23 04:07:30;;;;;;;2.57;1.47;;;;;;;;;;5102663;28;20200;-69
2021/08/23 04:09:59;;;;;;;3.93;1.33;;;;;;;;;;5106759;28;20209;-68
2021/08/23 04:12:27;;;;;;;2.67;1.50;;;;;;;;;;5097364;28;20280;-68
2021/08/23 04:14:55;;;;;;;4.50;1.60;;;;;;;;;;5097550;28;20317;-68
2021/08/23 04:17:23;;;;;;;1.67;1.30;;;;;;;;;;5097445;28;20637;-68
2021/08/23 04:19:51;;;;;;;3.37;1.40;;;;;;;;;;5097174;28;20543;-68
2021/08/23 04:22:19;;;;;;;2.87;1.60;;;;;;;;;;5105183;28;20254;-68
2021/08/23 04:24:47;;;;;;;2.07;1.20;;;;;;;;;;5106005;28;20217;-69
2021/08/23 04:27:16;;;;;;;1.33;1.23;;;;;;;;;;5105433;28;20203;-69
2021/08/23 04:29:44;;;;;;;3.63;1.10;;;;;;;;;;5105320;28;20684;-69
2021/08/23 04:32:12;;;;;;;1.67;1.57;;;;;;;;;;5097205;28;20204;-69
2021/08/23 04:34:40;;;;;;;1.40;1.00;;;;;;;;;;5096572;28;20233;-69
2021/08/23 04:37:08;;;;;;;1.47;1.13;;;;;;;;;;5096632;28;20194;-69
2021/08/23 04:39:36;;;;;;;2.90;2.50;;;;;;;;;;5096148;28;20202;-69
2021/08/23 04:42:04;;;;;;;2.23;1.70;;;;;;;;;;5102650;28;20674;-69
2021/08/23 04:44:34;;;;;;;3.17;1.53;;;;;;;;;;5107400;28;20550;-69
2021/08/23 04:47:01;;;;;;;2.57;1.47;;;;;;;;;;5107779;28;20197;-69
2021/08/23 04:49:29;;;;;;;1.77;1.20;;;;;;;;;;5105914;28;20198;-69
2021/08/23 04:51:57;;;;;;;5.30;1.70;;;;;;;;;;5105211;28;20197;-69
2021/08/23 04:54:25;;;;;;;1.53;1.23;;;;;;;;;;5101874;28;20312;-69
2021/08/23 04:56:53;;;;;;;2.13;1.40;;;;;;;;;;5104181;28;20207;-69
2021/08/23 04:59:21;;;;;;;2.07;1.27;;;;;;;;;;5107011;28;20201;-69
2021/08/23 05:01:50;;;;;;;3.00;2.60;;;;;;;;;;5102982;28;20279;-69
2021/08/23 05:04:18;;;;;;;2.97;1.07;;;;;;;;;;5103857;28;20216;-69
2021/08/23 05:06:46;;;;;;;2.37;1.40;;;;;;;;;;5107304;28;20228;-69
2021/08/23 05:09:14;;;;;;;2.60;1.60;;;;;;;;;;5096543;28;20217;-69
2021/08/23 05:11:44;;;;;;;3.67;1.67;;;;;;;;;;5097364;28;20627;-69
2021/08/23 05:14:11;;;;;;;8.63;1.50;;;;;;;;;;5096970;28;20728;-64
2021/08/23 05:16:39;;;;;;;1.60;1.40;;;;;;;;;;5097592;28;20284;-64
2021/08/23 05:19:09;;;;;;;3.10;1.50;;;;;;;;;;5097764;28;20682;-64
2021/08/23 05:21:37;;;;;;;2.63;1.20;;;;;;;;;;5097384;28;20602;-67
2021/08/23 05:24:05;;;;;;;2.80;1.40;;;;;;;;;;5098923;28;20228;-67
2021/08/23 05:26:33;;;;;;;2.67;1.23;;;;;;;;;;5101695;28;20566;-67
2021/08/23 05:29:00;;;;;;;1.47;1.30;;;;;;;;;;5097846;28;20211;-66
2021/08/23 05:31:28;;;;;;;2.23;1.40;;;;;;;;;;5097649;28;20277;-66
2021/08/23 05:33:56;;;;;;;3.53;1.20;;;;;;;;;;5097428;28;20227;-66
2021/08/23 05:36:26;;;;;;;2.10;1.40;;;;;;;;;;5097661;28;20240;-66
2021/08/23 05:38:54;;;;;;;3.27;1.30;;;;;;;;;;5097136;28;20210;-66
2021/08/23 05:41:22;;;;;;;1.43;1.20;;;;;;;;;;5097539;28;20294;-64
2021/08/23 05:43:49;;;;;;;1.60;1.07;;;;;;;;;;5097576;28;20234;-64
2021/08/23 05:46:20;;;;;;;2.13;1.23;;;;;;;;;;5097197;28;20206;-64
2021/08/23 05:48:48;;;;;;;3.67;1.57;;;;;;;;;;5109462;28;20205;-69
2021/08/23 05:51:16;;;;;;;3.00;1.20;;;;;;;;;;5098483;28;20201;-67
2021/08/23 05:53:45;;;;;;;3.77;1.50;;;;;;;;;;5099371;28;20221;-69
2021/08/23 05:56:13;;;;;;;2.70;1.30;;;;;;;;;;5108349;28;20583;-69
2021/08/23 05:58:46;;;;;;;2.03;1.23;;;;;;;;;;5107558;28;20198;-69
2021/08/23 06:01:14;;;;;;;2.97;1.13;;;;;;;;;;5106886;28;20617;-69
2021/08/23 06:03:42;;;;;;;2.93;1.47;;;;;;;;;;5105200;28;20253;-69
2021/08/23 06:06:10;;;;;;;5.37;1.60;;;;;;;;;;5105395;28;20195;-70
2021/08/23 06:08:38;;;;;;;4.47;1.47;;;;;;;;;;5096560;28;20194;-70
2021/08/23 06:11:07;;;;;;;2.20;1.23;;;;;;;;;;5096293;28;20205;-70
2021/08/23 06:13:35;;;;;;;2.20;1.27;;;;;;;;;;5096468;28;20346;-70
2021/08/23 06:16:03;;;;;;;3.03;0.97;;;;;;;;;;5107507;28;20307;-65
2021/08/23 06:18:31;;;;;;;4.03;1.40;;;;;;;;;;5102644;28;20637;-65
2021/08/23 06:21:00;;;;;;;2.27;1.10;;;;;;;;;;5096841;28;20250;-64
2021/08/23 06:23:28;;;;;;;2.43;1.53;;;;;;;;;;5096610;28;20212;-65
2021/08/23 06:25:56;;;;;;;2.10;1.30;;;;;;;;;;5109892;28;20226;-65
2021/08/23 06:28:25;;;;;;;1.83;1.23;;;;;;;;;;5100473;28;20669;-66
2021/08/23 06:30:53;;;;;;;2.00;1.20;;;;;;;;;;5108373;28;20198;-65
2021/08/23 06:33:21;;;;;;;4.77;1.90;;;;;;;;;;5105846;28;20213;-66
2021/08/23 06:35:49;;;;;;;1.93;1.30;;;;;;;;;;5112898;28;20252;-67
2021/08/23 06:38:17;;;;;;;3.83;1.47;;;;;;;;;;5108580;28;20689;-65
2021/08/23 06:40:45;;;;;;;1.90;1.20;;;;;;;;;;5110137;28;20202;-65
2021/08/23 06:43:13;;;;;;;2.10;1.13;;;;;;;;;;5114616;28;20572;-66
2021/08/23 06:45:43;;;;;;;2.17;1.33;;;;;;;;;;5120258;27;20715;-68
2021/08/23 06:48:11;;;;;;;1.43;1.33;;;;;;;;;;5113269;28;20209;-63
2021/08/23 06:50:39;;;;;;;2.63;1.23;;;;;;;;;;5109072;28;20240;-65
2021/08/23 06:53:07;;;;;;;1.23;1.13;;;;;;;;;;5103836;28;20204;-66
2021/08/23 06:55:35;;;;;;;3.87;1.50;;;;;;;;;;5105518;28;20225;-66
2021/08/23 06:58:03;;;;;;;2.70;1.60;;;;;;;;;;5107867;28;20197;-66
2021/08/23 07:00:31;;;;;;;4.97;2.23;;;;;;;;;;5108214;28;20197;-63
2021/08/23 07:03:02;;;;;;;3.00;1.70;;;;;;;;;;5107669;28;20209;-66
2021/08/23 07:05:30;;;;;;;3.73;1.20;;;;;;;;;;5099137;28;20217;-65
2021/08/23 07:07:58;;;;;;;3.90;1.23;;;;;;;;;;5101920;28;20204;-64
2021/08/23 07:10:26;;;;;;;3.03;1.50;;;;;;;;;;5106301;28;20208;-64
2021/08/23 07:12:54;;;;;;;2.93;1.67;;;;;;;;;;5106436;28;20628;-64
2021/08/23 07:15:22;;;;;;;2.70;1.53;;;;;;;;;;5107803;28;20232;-64
2021/08/23 07:17:50;;;;;;;4.53;1.50;;;;;;;;;;5103402;28;20281;-64
2021/08/23 07:20:22;;;;;;;1.80;1.30;;;;;;;;;;5099253;28;20210;-64
2021/08/23 07:22:50;;;;;;;3.60;1.20;;;;;;;;;;5105692;28;20204;-64
2021/08/23 07:25:18;;;;;;;1.53;1.30;;;;;;;;;;5118072;28;20224;-64
2021/08/23 07:27:46;;;;;;;1.97;1.33;;;;;;;;;;5099518;28;20233;-64
2021/08/23 07:30:15;;;;;;;5.10;1.40;;;;;;;;;;5099070;28;20209;-64
2021/08/23 07:32:43;;;;;;;3.43;1.77;;;;;;;;;;5099012;28;20206;-64
2021/08/23 07:35:11;;;;;;;4.70;1.60;;;;;;;;;;5098903;28;20228;-63
2021/08/23 07:37:45;;;;;;;5.03;2.00;;;;;;;;;;5106777;28;20217;-64
2021/08/23 07:40:14;;;;;;;3.27;1.57;;;;;;;;;;5117885;28;20209;-65
2021/08/23 07:42:42;;;;;;;3.60;1.40;;;;;;;;;;5119414;28;20244;-62
2021/08/23 07:45:10;;;;;;;4.10;2.20;;;;;;;;;;5119175;28;20225;-64
2021/08/23 07:47:39;;;;;;;6.43;1.70;;;;;;;;;;5119382;28;20197;-62
2021/08/23 07:50:08;;;;;;;2.17;1.60;;;;;;;;;;5114805;28;20201;-62
2021/08/23 07:52:36;;;;;;;4.40;1.20;;;;;;;;;;5098672;28;20205;-62
2021/08/23 07:55:06;;;;;;;2.53;1.30;;;;;;;;;;5098412;28;20226;-62
2021/08/23 07:57:34;;;;;;;2.73;1.43;;;;;;;;;;5098702;28;20251;-63
2021/08/23 08:00:02;;;;;;;1.73;1.50;;;;;;;;;;5098714;28;20208;-62
2021/08/23 08:02:30;;;;;;;3.30;1.30;;;;;;;;;;5098848;28;20288;-62
2021/08/23 08:04:58;;;;;;;5.20;1.80;;;;;;;;;;5098670;28;20225;-62
2021/08/23 08:07:26;;;;;;;2.00;1.20;;;;;;;;;;5098622;28;20213;-62
2021/08/23 08:09:54;;;;;;;2.73;1.87;;;;;;;;;;5105664;28;20668;-62
2021/08/23 08:12:23;;;;;;;2.90;1.73;;;;;;;;;;5099780;28;20228;-61
2021/08/23 08:14:54;;;;;;;1.30;1.20;;;;;;;;;;5099360;28;20220;-63
2021/08/23 08:17:22;;;;;;;2.07;1.57;;;;;;;;;;5108882;28;20223;-64
2021/08/23 08:19:50;;;;;;;2.97;1.50;;;;;;;;;;5108317;28;20208;-64
2021/08/23 08:22:18;;;;;;;2.47;1.60;;;;;;;;;;5111248;28;20228;-63
2021/08/23 08:24:46;;;;;;;2.43;1.70;;;;;;;;;;5109611;28;20222;-64
2021/08/23 08:27:14;;;;;;;2.20;1.53;;;;;;;;;;5107699;28;20640;-64
2021/08/23 08:29:43;;;;;;;2.30;1.40;;;;;;;;;;5098140;28;20210;-64
2021/08/23 08:32:11;;;;;;;8.07;1.70;;;;;;;;;;5101108;28;20205;-62
2021/08/23 08:34:39;;;;;;;3.20;1.57;;;;;;;;;;5107014;28;20255;-62
2021/08/23 08:37:07;;;;;;;4.93;1.87;;;;;;;;;;5105267;28;20220;-64
2021/08/23 08:39:35;;;;;;;2.77;1.30;;;;;;;;;;5106391;28;20202;-62
2021/08/23 08:42:04;;;;;;;3.43;1.80;;;;;;;;;;5118636;28;20205;-60
2021/08/23 08:44:34;;;;;;;5.87;1.77;;;;;;;;;;5112243;28;20581;-60
2021/08/23 08:47:04;;;;;;;5.40;1.73;;;;;;;;;;5104342;28;20218;-60
2021/08/23 08:49:34;;;;;;;4.60;1.37;;;;;;;;;;5106200;28;20196;-60
2021/08/23 08:52:03;;;;;;;3.23;1.73;;;;;;;;;;5104694;28;20282;-61
2021/08/23 08:54:31;;;;;;;2.67;1.50;;;;;;;;;;5105353;28;20216;-61
2021/08/23 08:57:00;;;;;;;4.37;1.63;;;;;;;;;;5104978;28;20222;-61
2021/08/23 08:59:28;;;;;;;3.43;1.33;;;;;;;;;;5096636;28;20934;-63
2021/08/23 09:01:56;;;;;;;6.07;1.37;;;;;;;;;;5096422;28;20204;-63
2021/08/23 09:04:29;;;;;;;3.77;1.53;;;;;;;;;;5096249;28;20250;-63
2021/08/23 09:07:00;;;;;;;5.93;1.80;;;;;;;;;;5096449;28;20191;-63
2021/08/23 09:09:28;;;;;;;3.60;1.37;;;;;;;;;;5096705;28;20204;-63
2021/08/23 09:11:57;;;;;;;2.13;1.30;;;;;;;;;;5096324;28;20572;-61
2021/08/23 09:14:25;;;;;;;4.00;1.53;;;;;;;;;;5099273;28;20214;-61
2021/08/23 09:16:54;;;;;;;3.50;1.57;;;;;;;;;;5104888;28;20238;-62
2021/08/23 09:19:23;;;;;;;3.77;1.60;;;;;;;;;;5097122;28;20651;-61
2021/08/23 09:21:59;;;;;;;2.10;1.43;;;;;;;;;;5096736;28;20316;-61
2021/08/23 09:24:30;;;;;;;3.70;1.77;;;;;;;;;;5102364;28;20243;-63
2021/08/23 09:27:05;;;;;;;2.77;1.17;;;;;;;;;;5104452;28;20201;-61
2021/08/23 09:29:48;;;;;;;3.97;1.40;;;;;;;;;;5097459;28;20216;-62
2021/08/23 09:32:18;;;;;;;2.67;1.50;;;;;;;;;;5097455;28;20206;-61
2021/08/23 09:34:46;;;;;;;3.30;1.50;;;;;;;;;;5097709;28;20225;-60
2021/08/23 09:37:17;;;;;;;4.40;1.77;;;;;;;;;;5102540;28;20212;-61
2021/08/23 09:39:45;;;;;;;2.47;1.83;;;;;;;;;;5107481;28;20222;-60
2021/08/23 09:42:14;;;;;;;3.17;1.87;;;;;;;;;;5105748;28;20215;-60
2021/08/23 09:44:42;;;;;;;7.23;1.60;;;;;;;;;;5106832;28;20223;-60
2021/08/23 09:47:11;;;;;;;2.97;1.63;;;;;;;;;;5107717;28;20195;-60
2021/08/23 09:49:39;;;;;;;3.00;1.50;;;;;;;;;;5114074;28;20207;-60
2021/08/23 09:52:08;;;;;;;4.03;1.87;;;;;;;;;;5097373;28;21163;-62
2021/08/23 09:54:40;;;;;;;3.93;1.20;;;;;;;;;;5097501;28;20229;-60
2021/08/23 09:57:08;;;;;;;2.80;1.83;;;;;;;;;;5103457;28;20654;-60
2021/08/23 09:59:39;;;;;;;5.10;1.83;;;;;;;;;;5106607;28;20210;-60
2021/08/23 10:02:08;;;;;;;1.37;1.27;;;;;;;;;;5108592;28;20203;-60
2021/08/23 10:04:37;;;;;;;4.43;1.87;;;;;;;;;;5106871;28;20225;-60
2021/08/23 10:07:05;;;;;;;2.37;1.50;;;;;;;;;;5121424;28;20293;-60
2021/08/23 10:09:33;;;;;;;1.67;1.50;;;;;;;;;;5121850;28;20205;-60
2021/08/23 10:12:03;;;;;;;1.40;1.23;;;;;;;;;;5121798;28;20215;-62
2021/08/23 10:14:30;;;;;;;2.20;1.30;;;;;;;;;;5115341;28;20304;-61
2021/08/23 10:16:58;;;;;;;3.07;1.17;;;;;;;;;;5110152;27;20296;-62
2021/08/23 10:19:27;;;;;;;2.10;1.47;;;;;;;;;;5100706;28;20212;-62
2021/08/23 10:21:55;;;;;;;3.27;1.47;;;;;;;;;;5100483;28;20299;-61
2021/08/23 10:24:23;;;;;;;2.80;1.40;;;;;;;;;;5105073;28;20231;-62
2021/08/23 10:26:52;;;;;;;4.17;2.30;;;;;;;;;;5117400;28;20266;-62
2021/08/23 10:29:21;;;;;;;5.43;1.47;;;;;;;;;;5114646;28;20205;-62
2021/08/23 10:31:49;;;;;;;3.73;1.40;;;;;;;;;;5100561;28;20220;-62
2021/08/23 10:34:18;;;;;;;5.17;1.50;;;;;;;;;;5108885;28;20722;-61
2021/08/23 10:36:46;;;;;;;2.70;1.40;;;;;;;;;;5117434;28;20210;-62
2021/08/23 10:39:22;;;;;;;4.13;2.63;;;;;;;;;;5104953;28;20227;-62
2021/08/23 10:41:50;;;;;;;3.33;1.73;;;;;;;;;;5102813;28;20207;-62
2021/08/23 10:44:26;;;;;;;1.47;1.10;;;;;;;;;;5108609;28;20700;-62
2021/08/23 10:47:04;;;;;;;2.47;1.27;;;;;;;;;;5100159;28;20215;-63
2021/08/23 10:49:38;;;;;;;3.03;1.40;;;;;;;;;;5104260;28;20282;-63
2021/08/23 10:52:06;;;;;;;1.90;1.60;;;;;;;;;;5100028;28;20213;-63
2021/08/23 10:54:35;;;;;;;2.03;1.47;;;;;;;;;;5104773;28;20225;-63
2021/08/23 10:57:06;;;;;;;2.60;1.80;;;;;;;;;;5100114;28;20216;-63
2021/08/23 10:59:40;;;;;;;3.03;1.77;;;;;;;;;;5099759;28;20319;-62
2021/08/23 11:02:10;;;;;;;5.67;2.00;;;;;;;;;;5099819;28;20210;-63
2021/08/23 11:04:39;;;;;;;1.73;1.20;;;;;;;;;;5106286;28;20228;-62
2021/08/23 11:07:08;;;;;;;1.80;1.43;;;;;;;;;;5107491;28;20574;-62
2021/08/23 11:09:37;;;;;;;4.47;1.53;;;;;;;;;;5099457;28;20289;-63
2021/08/23 11:12:13;;;;;;;1.93;1.33;;;;;;;;;;5099133;28;20207;-62
2021/08/23 11:14:47;;;;;;;1.73;1.23;;;;;;;;;;5099586;28;20314;-62
2021/08/23 11:17:25;;;;;;;3.83;1.30;;;;;;;;;;5113204;28;20212;-63
2021/08/23 11:19:53;;;;;;;1.13;1.07;;;;;;;;;;5120077;28;20236;-63
2021/08/23 11:22:21;;;;;;;2.07;1.37;;;;;;;;;;5110994;28;20235;-63
2021/08/23 11:24:49;;;;;;;2.73;1.30;;;;;;;;;;5107360;28;20237;-63
2021/08/23 11:27:17;;;;;;;3.17;1.23;;;;;;;;;;5103146;28;20219;-63
2021/08/23 11:29:50;;;;;;;1.87;1.30;;;;;;;;;;5099146;28;20229;-63
2021/08/23 11:32:19;;;;;;;1.60;1.17;;;;;;;;;;5099070;28;20576;-63
2021/08/23 11:34:51;;;;;;;3.27;2.33;;;;;;;;;;5099032;28;20237;-63
2021/08/23 11:37:22;;;;;;;1.90;1.30;;;;;;;;;;5098858;28;20327;-63
2021/08/23 11:39:50;;;;;;;2.53;1.40;;;;;;;;;;5099041;28;20575;-64
2021/08/23 11:42:24;;;;;;;3.23;1.60;;;;;;;;;;5099243;28;20288;-64
2021/08/23 11:44:54;;;;;;;3.10;1.40;;;;;;;;;;5099182;28;20222;-63
2021/08/23 11:47:29;;;;;;;2.53;1.30;;;;;;;;;;5099239;28;20292;-63
2021/08/23 11:49:57;;;;;;;3.07;1.60;;;;;;;;;;5105634;28;20207;-64
2021/08/23 11:52:25;;;;;;;2.63;1.60;;;;;;;;;;5098560;28;20692;-65
2021/08/23 11:54:54;;;;;;;3.03;1.50;;;;;;;;;;5107036;28;20679;-63
2021/08/23 11:57:23;;;;;;;3.33;1.77;;;;;;;;;;5106993;28;20666;-65
2021/08/23 11:59:59;;;;;;;1.67;1.43;;;;;;;;;;5108098;28;20215;-64
2021/08/23 12:02:30;;;;;;;1.60;1.47;;;;;;;;;;5119080;28;20204;-65
2021/08/23 12:05:11;;;;;;;2.37;1.60;;;;;;;;;;5119217;28;20225;-65
2021/08/23 12:07:43;;;;;;;4.97;1.80;;;;;;;;;;5118786;28;20200;-63
2021/08/23 12:10:21;;;;;;;3.67;1.50;;;;;;;;;;5119244;28;20283;-64
2021/08/23 12:12:49;;;;;;;1.80;1.33;;;;;;;;;;5119180;28;20219;-64
2021/08/23 12:15:20;;;;;;;1.17;1.10;;;;;;;;;;5119155;28;20238;-64
2021/08/23 12:17:48;;;;;;;3.20;1.40;;;;;;;;;;5118891;28;20204;-64
2021/08/23 12:20:18;;;;;;;3.10;1.43;;;;;;;;;;5118704;28;20239;-64
2021/08/23 12:22:47;;;;;;;2.37;1.60;;;;;;;;;;5105575;28;20282;-65
2021/08/23 12:25:24;;;;;;;1.90;1.50;;;;;;;;;;5109977;28;20225;-64
2021/08/23 12:27:52;;;;;;;1.80;1.70;;;;;;;;;;5098096;28;20660;-64
2021/08/23 12:30:29;;;;;;;2.60;1.60;;;;;;;;;;5098352;28;20289;-64
2021/08/23 12:32:59;;;;;;;1.77;1.60;;;;;;;;;;5098201;28;20234;-65
2021/08/23 12:35:28;;;;;;;1.87;1.40;;;;;;;;;;5098242;28;20708;-64
2021/08/23 12:37:56;;;;;;;2.20;1.40;;;;;;;;;;5098013;28;20207;-64
2021/08/23 12:40:24;;;;;;;2.63;1.50;;;;;;;;;;5098158;28;20319;-64
2021/08/23 12:42:54;;;;;;;2.40;1.30;;;;;;;;;;5098020;28;20224;-64
2021/08/23 12:45:22;;;;;;;1.83;1.40;;;;;;;;;;5098018;28;20233;-64
2021/08/23 12:47:52;;;;;;;3.70;1.60;;;;;;;;;;5098082;28;20201;-64
2021/08/23 12:50:21;;;;;;;1.60;1.50;;;;;;;;;;5105302;28;20201;-64
2021/08/23 12:52:49;;;;;;;2.17;1.37;;;;;;;;;;5098214;28;20206;-64
2021/08/23 12:55:17;;;;;;;6.57;1.80;;;;;;;;;;5097955;28;20312;-64
2021/08/23 12:57:45;;;;;;;3.70;1.80;;;;;;;;;;5098252;28;20210;-64
2021/08/23 13:00:13;;;;;;;2.53;2.03;;;;;;;;;;5097714;28;20609;-64
2021/08/23 13:02:41;;;;;;;2.43;1.40;;;;;;;;;;5098054;28;20219;-64
2021/08/23 13:05:11;;;;;;;2.87;1.33;;;;;;;;;;5097762;28;20315;-64
2021/08/23 13:07:39;;;;;;;6.70;1.50;;;;;;;;;;5097516;28;20756;-64
2021/08/23 13:10:07;;;;;;;3.80;1.70;;;;;;;;;;5097973;28;20204;-64
2021/08/23 13:12:35;;;;;;;3.47;1.80;;;;;;;;;;5097469;28;20549;-64
2021/08/23 13:15:04;;;;;;;4.90;1.47;;;;;;;;;;5097635;28;20693;-64
2021/08/23 13:17:35;;;;;;;2.20;1.50;;;;;;;;;;5114353;28;20231;-64
2021/08/23 13:20:05;;;;;;;4.77;1.23;;;;;;;;;;5118284;28;20226;-64
2021/08/23 13:22:34;;;;;;;1.80;1.60;;;;;;;;;;5117590;28;20239;-64
2021/08/23 13:25:02;;;;;;;3.50;1.43;;;;;;;;;;5113576;28;20303;-65
2021/08/23 13:27:30;;;;;;;3.87;1.70;;;;;;;;;;5104794;28;20225;-63
2021/08/23 13:29:58;;;;;;;3.17;1.60;;;;;;;;;;5097197;28;20645;-64
2021/08/23 13:32:26;;;;;;;3.37;1.53;;;;;;;;;;5097330;28;20201;-64
2021/08/23 13:34:54;;;;;;;1.53;1.33;;;;;;;;;;5100470;28;20223;-66
2021/08/23 13:37:22;;;;;;;2.90;1.30;;;;;;;;;;5101310;28;20710;-65
2021/08/23 13:39:52;;;;;;;1.60;1.00;;;;;;;;;;5101553;28;20223;-65
2021/08/23 13:42:20;;;;;;;2.97;1.27;;;;;;;;;;5101703;28;20210;-66
2021/08/23 13:44:48;;;;;;;2.00;1.67;;;;;;;;;;5101275;28;20258;-66
2021/08/23 13:47:16;;;;;;;3.73;1.43;;;;;;;;;;5101727;28;20211;-65
2021/08/23 13:49:44;;;;;;;2.27;1.40;;;;;;;;;;5111391;28;20559;-65
2021/08/23 13:52:12;;;;;;;2.93;1.57;;;;;;;;;;5101423;28;20208;-64
2021/08/23 13:54:39;;;;;;;2.33;1.50;;;;;;;;;;5103942;28;20215;-63
2021/08/23 13:57:09;;;;;;;4.10;1.50;;;;;;;;;;5101633;28;20219;-63
2021/08/23 13:59:37;;;;;;;1.53;1.30;;;;;;;;;;5101461;28;20240;-61
2021/08/23 14:02:05;;;;;;;1.67;1.10;;;;;;;;;;5101052;28;20214;-61
2021/08/23 14:04:37;;;;;;;1.97;1.37;;;;;;;;;;5101339;28;20232;-62
2021/08/23 14:07:04;;;;;;;1.63;1.27;;;;;;;;;;5101068;28;20661;-62
2021/08/23 14:09:32;;;;;;;4.27;1.37;;;;;;;;;;5101126;28;20213;-63
2021/08/23 14:12:01;;;;;;;1.20;1.10;;;;;;;;;;5100865;28;20227;-63
2021/08/23 14:14:30;;;;;;;1.40;1.30;;;;;;;;;;5101058;28;20232;-63
2021/08/23 14:16:58;;;;;;;2.43;1.30;;;;;;;;;;5112406;28;20230;-62
2021/08/23 14:19:26;;;;;;;6.43;1.30;;;;;;;;;;5121636;28;20286;-61
2021/08/23 14:21:54;;;;;;;1.77;1.53;;;;;;;;;;5120959;28;20244;-60
2021/08/23 14:24:22;;;;;;;3.40;2.00;;;;;;;;;;5120964;28;20220;-61
2021/08/23 14:26:50;;;;;;;1.43;1.33;;;;;;;;;;5108500;28;20208;-61
2021/08/23 14:29:19;;;;;;;2.93;1.23;;;;;;;;;;5100803;28;20205;-61
2021/08/23 14:31:48;;;;;;;4.00;2.37;;;;;;;;;;5100699;28;20637;-61
2021/08/23 14:34:16;;;;;;;2.10;1.27;;;;;;;;;;5107917;28;20234;-61
2021/08/23 14:36:44;;;;;;;2.17;1.50;;;;;;;;;;5120653;28;20209;-61
2021/08/23 14:39:12;;;;;;;2.63;1.47;;;;;;;;;;5121179;28;20290;-61
2021/08/23 14:41:40;;;;;;;2.37;1.20;;;;;;;;;;5116968;28;20217;-60
2021/08/23 14:44:08;;;;;;;2.47;1.50;;;;;;;;;;5105223;28;20235;-62
2021/08/23 14:46:36;;;;;;;1.63;1.53;;;;;;;;;;5119550;28;20215;-62
2021/08/23 14:49:07;;;;;;;2.40;1.37;;;;;;;;;;5120534;28;20726;-61
2021/08/23 14:51:36;;;;;;;1.53;1.43;;;;;;;;;;5104894;28;20216;-60
2021/08/23 14:54:05;;;;;;;4.17;1.57;;;;;;;;;;5100314;28;20236;-62